createdAt,value
2022-10-01T00:00:16.065Z,7
2022-10-01T00:01:16.122Z,6
2022-10-01T00:02:16.062Z,6
2022-10-01T00:03:16.145Z,5
2022-10-01T00:04:16.077Z,6
2022-10-01T00:05:16.069Z,6
2022-10-01T00:06:16.059Z,6
2022-10-01T00:07:16.068Z,6
2022-10-01T00:08:16.066Z,7
2022-10-01T00:09:16.086Z,7
2022-10-01T00:10:16.069Z,4
2022-10-01T00:11:16.066Z,6
2022-10-01T00:12:16.065Z,6
2022-10-01T00:13:16.065Z,9
2022-10-01T00:14:16.081Z,5
2022-10-01T00:16:16.108Z,8
2022-10-01T00:17:16.064Z,7
2022-10-01T00:18:16.073Z,5
2022-10-01T00:19:16.074Z,5
2022-10-01T00:20:16.076Z,6
2022-10-01T00:21:16.071Z,7
2022-10-01T00:22:16.064Z,6
2022-10-01T00:23:16.065Z,7
2022-10-01T00:24:16.057Z,7
2022-10-01T00:25:16.183Z,8
2022-10-01T00:26:16.149Z,7
2022-10-01T00:27:16.145Z,7
2022-10-01T00:28:16.099Z,7
2022-10-01T00:29:16.071Z,6
2022-10-01T00:30:16.078Z,7
2022-10-01T00:31:16.203Z,6
2022-10-01T00:32:16.068Z,6
2022-10-01T00:34:16.063Z,6
2022-10-01T00:35:16.075Z,7
2022-10-01T00:37:16.068Z,6
2022-10-01T00:38:16.063Z,6
2022-10-01T00:39:16.069Z,7
2022-10-01T00:40:16.070Z,7
2022-10-01T00:41:16.084Z,7
2022-10-01T00:42:16.063Z,7
2022-10-01T00:43:16.068Z,7
2022-10-01T00:44:16.071Z,6
2022-10-01T00:45:16.070Z,6
2022-10-01T00:46:16.106Z,6
2022-10-01T00:47:16.072Z,7
2022-10-01T00:48:16.117Z,8
2022-10-01T00:49:16.068Z,5
2022-10-01T00:50:16.067Z,7
2022-10-01T00:51:16.076Z,7
2022-10-01T00:52:16.070Z,8
2022-10-01T00:53:16.073Z,6
2022-10-01T00:54:16.069Z,6
2022-10-01T00:55:16.069Z,6
2022-10-01T00:56:16.106Z,6
2022-10-01T00:58:16.078Z,8
2022-10-01T00:59:16.083Z,8
2022-10-01T01:00:16.089Z,9
2022-10-01T01:01:16.121Z,12
2022-10-01T01:02:16.116Z,7
2022-10-01T01:04:16.082Z,9
2022-10-01T01:05:16.149Z,8
2022-10-01T01:06:16.067Z,7
2022-10-01T01:07:16.067Z,7
2022-10-01T01:08:16.084Z,8
2022-10-01T01:09:16.081Z,6
2022-10-01T01:10:16.070Z,7
2022-10-01T01:11:16.074Z,8
2022-10-01T01:12:16.071Z,6
2022-10-01T01:13:16.084Z,8
2022-10-01T01:14:16.072Z,7
2022-10-01T01:15:16.158Z,11
2022-10-01T01:16:16.120Z,8
2022-10-01T01:17:16.109Z,9
2022-10-01T01:19:16.073Z,8
2022-10-01T01:20:16.073Z,6
2022-10-01T01:21:16.076Z,9
2022-10-01T01:22:16.130Z,8
2022-10-01T01:23:16.093Z,8
2022-10-01T01:24:16.085Z,8
2022-10-01T01:25:16.070Z,7
2022-10-01T01:26:16.072Z,8
2022-10-01T01:27:16.095Z,8
2022-10-01T01:28:16.155Z,8
2022-10-01T01:30:16.071Z,7
2022-10-01T01:31:16.206Z,7
2022-10-01T01:32:16.076Z,7
2022-10-01T01:33:16.079Z,8
2022-10-01T01:34:16.131Z,7
2022-10-01T01:35:16.073Z,9
2022-10-01T01:36:16.067Z,7
2022-10-01T01:37:16.084Z,8
2022-10-01T01:38:16.077Z,8
2022-10-01T01:39:16.081Z,8
2022-10-01T01:40:16.073Z,11
2022-10-01T01:41:16.078Z,9
2022-10-01T01:42:16.080Z,9
2022-10-01T01:43:16.070Z,7
2022-10-01T01:44:16.075Z,6
2022-10-01T01:45:16.086Z,6
2022-10-01T01:46:16.129Z,6
2022-10-01T01:47:16.076Z,7
2022-10-01T01:48:16.071Z,8
2022-10-01T01:49:16.069Z,9
2022-10-01T01:51:16.126Z,8
2022-10-01T01:52:16.076Z,8
2022-10-01T01:53:16.071Z,8
2022-10-01T01:55:16.079Z,8
2022-10-01T01:56:16.080Z,8
2022-10-01T01:57:16.079Z,6
2022-10-01T01:58:16.151Z,7
2022-10-01T01:59:16.065Z,7
2022-10-01T02:00:16.083Z,6
2022-10-01T02:01:16.152Z,5
2022-10-01T02:02:16.232Z,9
2022-10-01T02:03:16.155Z,11
2022-10-01T02:05:16.088Z,9
2022-10-01T02:06:16.092Z,8
2022-10-01T02:07:16.072Z,8
2022-10-01T02:08:16.075Z,8
2022-10-01T02:09:16.079Z,7
2022-10-01T02:10:16.692Z,8
2022-10-01T02:12:16.072Z,7
2022-10-01T02:13:16.072Z,8
2022-10-01T02:14:16.079Z,7
2022-10-01T02:15:16.077Z,7
2022-10-01T02:16:16.140Z,9
2022-10-01T02:17:16.082Z,9
2022-10-01T02:18:16.070Z,9
2022-10-01T02:19:16.069Z,7
2022-10-01T02:20:16.079Z,8
2022-10-01T02:21:16.099Z,7
2022-10-01T02:22:16.083Z,6
2022-10-01T02:23:16.079Z,7
2022-10-01T02:24:16.074Z,8
2022-10-01T02:25:16.083Z,6
2022-10-01T02:26:16.083Z,7
2022-10-01T02:27:16.086Z,7
2022-10-01T02:28:16.171Z,6
2022-10-01T02:29:16.127Z,6
2022-10-01T02:31:16.087Z,6
2022-10-01T02:32:16.121Z,7
2022-10-01T02:33:16.090Z,7
2022-10-01T02:34:19.950Z,9
2022-10-01T02:35:16.082Z,6
2022-10-01T02:36:16.082Z,6
2022-10-01T02:37:16.080Z,7
2022-10-01T02:38:16.078Z,7
2022-10-01T02:39:16.072Z,7
2022-10-01T02:40:16.084Z,8
2022-10-01T02:41:16.081Z,6
2022-10-01T02:42:16.135Z,6
2022-10-01T02:43:16.077Z,6
2022-10-01T02:44:16.071Z,7
2022-10-01T02:45:16.079Z,7
2022-10-01T02:46:16.166Z,7
2022-10-01T02:47:16.076Z,9
2022-10-01T02:48:16.084Z,8
2022-10-01T02:49:16.084Z,8
2022-10-01T02:50:16.082Z,7
2022-10-01T02:51:16.078Z,7
2022-10-01T02:52:16.081Z,10
2022-10-01T02:53:16.168Z,8
2022-10-01T02:54:16.170Z,8
2022-10-01T02:55:16.168Z,6
2022-10-01T02:56:16.074Z,6
2022-10-01T02:57:16.071Z,7
2022-10-01T02:58:16.079Z,7
2022-10-01T02:59:16.129Z,7
2022-10-01T03:00:16.093Z,7
2022-10-01T03:01:16.124Z,7
2022-10-01T03:02:16.168Z,9
2022-10-01T03:03:16.088Z,7
2022-10-01T03:04:16.112Z,6
2022-10-01T03:05:16.080Z,7
2022-10-01T03:06:16.086Z,7
2022-10-01T03:07:16.071Z,7
2022-10-01T03:08:16.082Z,7
2022-10-01T03:09:16.083Z,6
2022-10-01T03:10:16.093Z,7
2022-10-01T03:11:16.084Z,7
2022-10-01T03:12:16.073Z,8
2022-10-01T03:13:16.081Z,7
2022-10-01T03:14:16.098Z,7
2022-10-01T03:15:16.084Z,7
2022-10-01T03:17:16.090Z,8
2022-10-01T03:18:16.097Z,8
2022-10-01T03:19:16.081Z,8
2022-10-01T03:20:16.089Z,6
2022-10-01T03:21:16.082Z,6
2022-10-01T03:22:16.074Z,7
2022-10-01T03:23:16.076Z,7
2022-10-01T03:24:16.089Z,7
2022-10-01T03:25:16.105Z,8
2022-10-01T03:26:16.145Z,7
2022-10-01T03:27:16.082Z,7
2022-10-01T03:28:16.155Z,5
2022-10-01T03:29:16.082Z,8
2022-10-01T03:30:16.111Z,8
2022-10-01T03:31:16.243Z,6
2022-10-01T03:32:16.088Z,7
2022-10-01T03:33:16.079Z,6
2022-10-01T03:34:16.079Z,6
2022-10-01T03:35:16.091Z,6
2022-10-01T03:36:16.081Z,7
2022-10-01T03:38:16.078Z,6
2022-10-01T03:39:16.081Z,6
2022-10-01T03:40:16.095Z,7
2022-10-01T03:41:16.084Z,6
2022-10-01T03:42:16.078Z,14
2022-10-01T03:43:16.165Z,9
2022-10-01T03:44:16.179Z,7
2022-10-01T03:45:16.208Z,7
2022-10-01T03:46:16.295Z,7
2022-10-01T03:47:16.163Z,8
2022-10-01T03:48:16.170Z,9
2022-10-01T03:49:16.167Z,8
2022-10-01T03:50:16.223Z,8
2022-10-01T03:51:19.778Z,10
2022-10-01T03:52:16.166Z,9
2022-10-01T03:53:16.162Z,10
2022-10-01T03:54:16.188Z,9
2022-10-01T03:55:16.161Z,9
2022-10-01T03:56:16.164Z,8
2022-10-01T03:57:16.171Z,6
2022-10-01T03:58:16.159Z,7
2022-10-01T03:59:16.363Z,6
2022-10-01T04:00:30.479Z,8
2022-10-01T04:01:44.699Z,5
2022-10-01T04:03:16.093Z,5
2022-10-01T04:04:16.084Z,6
2022-10-01T04:05:16.077Z,7
2022-10-01T04:06:16.074Z,7
2022-10-01T04:07:16.084Z,6
2022-10-01T04:08:17.925Z,5
2022-10-01T04:09:16.085Z,5
2022-10-01T04:10:16.091Z,5
2022-10-01T04:11:16.095Z,6
2022-10-01T04:12:16.100Z,4
2022-10-01T04:13:16.079Z,6
2022-10-01T04:14:16.146Z,5
2022-10-01T04:16:16.178Z,4
2022-10-01T04:17:16.113Z,5
2022-10-01T04:18:16.086Z,4
2022-10-01T04:19:16.085Z,4
2022-10-01T04:20:16.089Z,5
2022-10-01T04:21:16.083Z,4
2022-10-01T04:22:16.086Z,5
2022-10-01T04:23:16.114Z,4
2022-10-01T04:24:16.080Z,4
2022-10-01T04:25:16.083Z,5
2022-10-01T04:26:16.089Z,3
2022-10-01T04:28:16.157Z,5
2022-10-01T04:29:16.078Z,4
2022-10-01T04:30:16.079Z,4
2022-10-01T04:31:16.209Z,5
2022-10-01T04:32:16.078Z,5
2022-10-01T04:33:16.098Z,3
2022-10-01T04:34:16.079Z,4
2022-10-01T04:35:16.085Z,4
2022-10-01T04:36:16.085Z,5
2022-10-01T04:37:16.080Z,4
2022-10-01T04:38:16.095Z,5
2022-10-01T04:39:16.087Z,4
2022-10-01T04:40:16.075Z,6
2022-10-01T04:41:16.077Z,4
2022-10-01T04:42:16.084Z,4
2022-10-01T04:43:16.088Z,3
2022-10-01T04:44:16.080Z,3
2022-10-01T04:45:16.081Z,4
2022-10-01T04:46:16.115Z,4
2022-10-01T04:47:16.081Z,6
2022-10-01T04:48:16.107Z,4
2022-10-01T04:50:16.171Z,3
2022-10-01T04:51:16.170Z,3
2022-10-01T04:52:16.169Z,4
2022-10-01T04:53:16.171Z,5
2022-10-01T04:54:16.167Z,5
2022-10-01T04:55:16.163Z,3
2022-10-01T04:56:16.162Z,3
2022-10-01T04:57:16.170Z,4
2022-10-01T04:58:16.172Z,4
2022-10-01T04:59:16.162Z,3
2022-10-01T05:00:16.167Z,5
2022-10-01T05:01:16.359Z,3
2022-10-01T05:02:16.228Z,3
2022-10-01T05:03:16.166Z,4
2022-10-01T05:04:16.163Z,3
2022-10-01T05:05:16.362Z,4
2022-10-01T05:06:30.480Z,3
2022-10-01T05:07:44.596Z,3
2022-10-01T05:08:58.476Z,2
2022-10-01T05:11:16.092Z,2
2022-10-01T05:12:16.127Z,3
2022-10-01T05:13:16.085Z,3
2022-10-01T05:14:16.083Z,3
2022-10-01T05:15:16.095Z,3
2022-10-01T05:16:16.152Z,4
2022-10-01T05:17:16.083Z,4
2022-10-01T05:18:16.082Z,3
2022-10-01T05:19:16.107Z,2
2022-10-01T05:20:16.087Z,4
2022-10-01T05:21:16.092Z,2
2022-10-01T05:22:16.086Z,3
2022-10-01T05:23:16.084Z,4
2022-10-01T05:24:16.084Z,3
2022-10-01T05:25:16.086Z,2
2022-10-01T05:26:16.094Z,4
2022-10-01T05:27:16.089Z,3
2022-10-01T05:28:21.323Z,3
2022-10-01T05:30:16.095Z,2
2022-10-01T05:31:16.174Z,2
2022-10-01T05:32:16.090Z,3
2022-10-01T05:33:16.093Z,3
2022-10-01T05:34:16.095Z,3
2022-10-01T05:35:16.085Z,4
2022-10-01T05:37:16.083Z,4
2022-10-01T05:38:16.088Z,3
2022-10-01T05:39:16.083Z,4
2022-10-01T05:40:16.087Z,2
2022-10-01T05:41:16.147Z,2
2022-10-01T05:42:16.096Z,2
2022-10-01T05:43:16.081Z,3
2022-10-01T05:44:16.087Z,4
2022-10-01T05:45:16.084Z,3
2022-10-01T05:46:16.192Z,2
2022-10-01T05:47:16.094Z,3
2022-10-01T05:48:16.093Z,2
2022-10-01T05:49:16.089Z,3
2022-10-01T05:50:16.114Z,3
2022-10-01T05:52:16.085Z,3
2022-10-01T05:53:16.098Z,4
2022-10-01T05:54:16.080Z,3
2022-10-01T05:55:16.083Z,6
2022-10-01T05:56:16.183Z,3
2022-10-01T05:57:16.169Z,2
2022-10-01T05:58:16.177Z,4
2022-10-01T05:59:16.171Z,2
2022-10-01T06:00:16.088Z,3
2022-10-01T06:01:16.084Z,3
2022-10-01T06:02:16.234Z,2
2022-10-01T06:03:16.205Z,5
2022-10-01T06:04:16.088Z,3
2022-10-01T06:05:16.095Z,2
2022-10-01T06:06:16.082Z,3
2022-10-01T06:07:16.087Z,2
2022-10-01T06:08:16.088Z,3
2022-10-01T06:09:16.083Z,3
2022-10-01T06:10:16.095Z,3
2022-10-01T06:12:19.689Z,4
2022-10-01T06:13:16.084Z,3
2022-10-01T06:14:16.110Z,2
2022-10-01T06:15:16.096Z,4
2022-10-01T06:16:16.154Z,2
2022-10-01T06:17:16.096Z,3
2022-10-01T06:18:16.084Z,3
2022-10-01T06:19:16.098Z,2
2022-10-01T06:20:16.145Z,2
2022-10-01T06:21:16.152Z,2
2022-10-01T06:22:16.103Z,2
2022-10-01T06:23:16.090Z,2
2022-10-01T06:24:16.089Z,4
2022-10-01T06:25:16.095Z,2
2022-10-01T06:26:16.250Z,3
2022-10-01T06:27:16.075Z,3
2022-10-01T06:28:16.191Z,2
2022-10-01T06:29:16.090Z,2
2022-10-01T06:30:16.108Z,4
2022-10-01T06:31:16.150Z,2
2022-10-01T06:32:16.149Z,2
2022-10-01T06:33:16.088Z,3
2022-10-01T06:34:16.104Z,3
2022-10-01T06:36:16.090Z,2
2022-10-01T06:37:16.090Z,3
2022-10-01T06:39:16.082Z,3
2022-10-01T06:40:16.094Z,2
2022-10-01T06:41:16.083Z,2
2022-10-01T06:42:16.105Z,2
2022-10-01T06:43:16.088Z,3
2022-10-01T06:44:16.093Z,3
2022-10-01T06:45:16.095Z,4
2022-10-01T06:46:16.201Z,4
2022-10-01T06:47:16.169Z,3
2022-10-01T06:48:16.165Z,3
2022-10-01T06:49:16.221Z,2
2022-10-01T06:50:16.093Z,4
2022-10-01T06:51:16.100Z,2
2022-10-01T06:52:16.125Z,4
2022-10-01T06:53:16.100Z,3
2022-10-01T06:54:16.134Z,2
2022-10-01T06:55:16.900Z,2
2022-10-01T06:56:16.097Z,4
2022-10-01T06:57:16.092Z,2
2022-10-01T06:58:16.090Z,2
2022-10-01T06:59:16.102Z,2
2022-10-01T07:00:16.096Z,2
2022-10-01T07:01:16.113Z,3
2022-10-01T07:02:16.170Z,4
2022-10-01T07:03:16.094Z,2
2022-10-01T07:05:16.093Z,2
2022-10-01T07:06:16.109Z,3
2022-10-01T07:08:16.099Z,1
2022-10-01T07:09:16.090Z,2
2022-10-01T07:10:16.118Z,2
2022-10-01T07:11:16.112Z,4
2022-10-01T07:12:16.095Z,2
2022-10-01T07:13:16.094Z,2
2022-10-01T07:14:16.089Z,3
2022-10-01T07:15:16.097Z,3
2022-10-01T07:16:16.144Z,2
2022-10-01T07:18:16.093Z,3
2022-10-01T07:19:16.088Z,2
2022-10-01T07:20:16.095Z,1
2022-10-01T07:21:16.083Z,4
2022-10-01T07:22:16.099Z,2
2022-10-01T07:23:16.184Z,2
2022-10-01T07:24:16.089Z,4
2022-10-01T07:25:16.099Z,3
2022-10-01T07:26:16.090Z,3
2022-10-01T07:27:16.098Z,4
2022-10-01T07:28:16.634Z,2
2022-10-01T07:29:16.092Z,2
2022-10-01T07:30:16.088Z,2
2022-10-01T07:31:16.170Z,3
2022-10-01T07:32:16.088Z,5
2022-10-01T07:33:16.075Z,2
2022-10-01T07:34:16.084Z,2
2022-10-01T07:35:16.074Z,2
2022-10-01T07:36:16.097Z,4
2022-10-01T07:37:16.163Z,3
2022-10-01T07:38:16.159Z,2
2022-10-01T07:39:16.163Z,2
2022-10-01T07:40:16.219Z,3
2022-10-01T07:41:16.173Z,3
2022-10-01T07:43:16.159Z,3
2022-10-01T07:44:16.200Z,4
2022-10-01T07:45:16.218Z,4
2022-10-01T07:46:16.232Z,6
2022-10-01T07:47:16.170Z,4
2022-10-01T07:48:16.179Z,5
2022-10-01T07:49:16.167Z,3
2022-10-01T07:50:16.182Z,5
2022-10-01T07:51:16.167Z,4
2022-10-01T07:52:16.186Z,7
2022-10-01T07:53:16.177Z,7
2022-10-01T07:54:16.379Z,6
2022-10-01T07:57:16.093Z,6
2022-10-01T07:58:16.097Z,8
2022-10-01T07:59:16.105Z,7
2022-10-01T08:00:16.096Z,7
2022-10-01T08:01:16.137Z,6
2022-10-01T08:02:16.239Z,6
2022-10-01T08:03:16.100Z,7
2022-10-01T08:04:16.099Z,5
2022-10-01T08:05:16.101Z,6
2022-10-01T08:06:16.099Z,6
2022-10-01T08:07:16.103Z,8
2022-10-01T08:08:16.106Z,5
2022-10-01T08:09:16.105Z,4
2022-10-01T08:10:16.104Z,4
2022-10-01T08:11:16.114Z,3
2022-10-01T08:13:16.099Z,2
2022-10-01T08:14:16.096Z,3
2022-10-01T08:15:16.101Z,3
2022-10-01T08:16:16.232Z,3
2022-10-01T08:17:16.101Z,4
2022-10-01T08:18:16.108Z,2
2022-10-01T08:20:16.108Z,3
2022-10-01T08:21:16.103Z,3
2022-10-01T08:22:16.103Z,3
2022-10-01T08:23:16.093Z,2
2022-10-01T08:24:16.108Z,2
2022-10-01T08:25:16.128Z,4
2022-10-01T08:26:16.098Z,4
2022-10-01T08:27:16.109Z,5
2022-10-01T08:28:16.320Z,2
2022-10-01T08:29:17.117Z,1
2022-10-01T08:30:16.094Z,2
2022-10-01T08:31:16.266Z,3
2022-10-01T08:32:16.105Z,2
2022-10-01T08:33:16.094Z,4
2022-10-01T08:34:16.102Z,4
2022-10-01T08:35:16.105Z,3
2022-10-01T08:36:16.101Z,3
2022-10-01T08:37:16.108Z,2
2022-10-01T08:39:16.105Z,3
2022-10-01T08:40:16.102Z,3
2022-10-01T08:41:18.320Z,3
2022-10-01T08:42:16.108Z,2
2022-10-01T08:43:16.122Z,2
2022-10-01T08:45:16.156Z,4
2022-10-01T08:46:16.225Z,6
2022-10-01T08:47:16.105Z,5
2022-10-01T08:49:16.189Z,4
2022-10-01T08:50:16.177Z,3
2022-10-01T08:51:16.097Z,3
2022-10-01T08:52:16.104Z,3
2022-10-01T08:53:16.112Z,3
2022-10-01T08:54:16.109Z,3
2022-10-01T08:55:16.101Z,5
2022-10-01T08:56:16.123Z,5
2022-10-01T08:57:16.098Z,4
2022-10-01T08:58:16.113Z,4
2022-10-01T08:59:16.102Z,4
2022-10-01T09:00:16.098Z,5
2022-10-01T09:01:16.205Z,5
2022-10-01T09:02:16.099Z,4
2022-10-01T09:03:16.115Z,5
2022-10-01T09:04:16.194Z,5
2022-10-01T09:06:16.100Z,6
2022-10-01T09:07:16.152Z,5
2022-10-01T09:08:16.099Z,5
2022-10-01T09:09:16.118Z,6
2022-10-01T09:10:16.101Z,4
2022-10-01T09:11:16.108Z,6
2022-10-01T09:12:16.104Z,4
2022-10-01T09:13:16.111Z,8
2022-10-01T09:15:16.118Z,6
2022-10-01T09:16:16.177Z,4
2022-10-01T09:17:16.115Z,5
2022-10-01T09:18:16.105Z,6
2022-10-01T09:19:16.154Z,3
2022-10-01T09:20:16.107Z,6
2022-10-01T09:21:16.117Z,5
2022-10-01T09:22:16.111Z,4
2022-10-01T09:23:16.105Z,6
2022-10-01T09:24:16.114Z,4
2022-10-01T09:25:16.110Z,5
2022-10-01T09:27:16.132Z,3
2022-10-01T09:28:16.187Z,6
2022-10-01T09:29:16.104Z,5
2022-10-01T09:30:16.127Z,4
2022-10-01T09:31:16.175Z,5
2022-10-01T09:32:16.119Z,4
2022-10-01T09:33:16.120Z,6
2022-10-01T09:34:16.110Z,5
2022-10-01T09:35:16.111Z,5
2022-10-01T09:36:16.170Z,6
2022-10-01T09:37:16.196Z,4
2022-10-01T09:38:16.196Z,4
2022-10-01T09:39:16.198Z,5
2022-10-01T09:40:16.242Z,4
2022-10-01T09:41:16.107Z,5
2022-10-01T09:42:16.111Z,5
2022-10-01T09:43:16.162Z,6
2022-10-01T09:44:18.740Z,5
2022-10-01T09:46:16.169Z,4
2022-10-01T09:47:16.125Z,4
2022-10-01T09:49:16.110Z,5
2022-10-01T09:50:16.148Z,7
2022-10-01T09:51:16.119Z,6
2022-10-01T09:52:16.112Z,4
2022-10-01T09:53:16.115Z,7
2022-10-01T09:54:16.114Z,4
2022-10-01T09:55:16.112Z,6
2022-10-01T09:56:16.112Z,4
2022-10-01T09:57:16.121Z,9
2022-10-01T09:58:16.134Z,5
2022-10-01T09:59:16.118Z,6
2022-10-01T10:00:16.210Z,6
2022-10-01T10:01:16.115Z,6
2022-10-01T10:02:16.219Z,5
2022-10-01T10:03:16.237Z,6
2022-10-01T10:04:19.945Z,6
2022-10-01T10:05:16.110Z,5
2022-10-01T10:07:16.121Z,6
2022-10-01T10:08:16.114Z,5
2022-10-01T10:10:16.122Z,5
2022-10-01T10:11:16.114Z,3
2022-10-01T10:12:16.118Z,6
2022-10-01T10:14:16.116Z,5
2022-10-01T10:15:16.136Z,5
2022-10-01T10:16:16.153Z,5
2022-10-01T10:17:16.111Z,5
2022-10-01T10:18:19.118Z,6
2022-10-01T10:19:16.127Z,3
2022-10-01T10:20:16.112Z,5
2022-10-01T10:21:16.115Z,3
2022-10-01T10:22:16.140Z,3
2022-10-01T10:23:16.131Z,4
2022-10-01T10:24:16.140Z,4
2022-10-01T10:25:16.117Z,4
2022-10-01T10:26:16.114Z,4
2022-10-01T10:27:16.119Z,4
2022-10-01T10:28:16.204Z,4
2022-10-01T10:29:16.146Z,4
2022-10-01T10:30:16.211Z,4
2022-10-01T10:31:16.213Z,4
2022-10-01T10:32:16.189Z,3
2022-10-01T10:33:16.142Z,3
2022-10-01T10:34:16.164Z,5
2022-10-01T10:35:16.116Z,2
2022-10-01T10:36:16.171Z,3
2022-10-01T10:37:16.127Z,4
2022-10-01T10:38:16.117Z,3
2022-10-01T10:39:16.136Z,3
2022-10-01T10:40:16.121Z,3
2022-10-01T10:41:16.118Z,9
2022-10-01T10:42:16.127Z,4
2022-10-01T10:43:16.123Z,4
2022-10-01T10:44:16.130Z,3
2022-10-01T10:45:16.126Z,3
2022-10-01T10:46:16.195Z,4
2022-10-01T10:47:16.118Z,3
2022-10-01T10:48:16.128Z,3
2022-10-01T10:49:16.132Z,3
2022-10-01T10:50:16.128Z,3
2022-10-01T10:51:16.166Z,4
2022-10-01T10:52:16.127Z,3
2022-10-01T10:53:16.134Z,4
2022-10-01T10:54:16.133Z,4
2022-10-01T10:55:16.125Z,5
2022-10-01T10:56:16.122Z,3
2022-10-01T10:57:16.123Z,3
2022-10-01T10:58:16.134Z,4
2022-10-01T11:00:16.159Z,3
2022-10-01T11:01:16.224Z,4
2022-10-01T11:02:16.198Z,4
2022-10-01T11:03:16.126Z,3
2022-10-01T11:04:16.141Z,4
2022-10-01T11:05:16.206Z,3
2022-10-01T11:06:16.218Z,4
2022-10-01T11:07:16.201Z,3
2022-10-01T11:08:17.916Z,3
2022-10-01T11:09:16.208Z,5
2022-10-01T11:10:16.222Z,4
2022-10-01T11:11:16.221Z,4
2022-10-01T11:12:16.232Z,4
2022-10-01T11:13:16.217Z,4
2022-10-01T11:14:20.150Z,6
2022-10-01T11:15:16.215Z,4
2022-10-01T11:16:16.292Z,7
2022-10-01T11:17:16.208Z,4
2022-10-01T11:18:16.250Z,6
2022-10-01T11:19:16.220Z,6
2022-10-01T11:21:16.140Z,6
2022-10-01T11:22:16.126Z,9
2022-10-01T11:23:16.129Z,6
2022-10-01T11:24:16.128Z,5
2022-10-01T11:25:16.195Z,7
2022-10-01T11:26:16.135Z,7
2022-10-01T11:27:16.129Z,9
2022-10-01T11:28:16.197Z,7
2022-10-01T11:29:16.143Z,7
2022-10-01T11:30:16.128Z,6
2022-10-01T11:31:16.211Z,5
2022-10-01T11:32:16.144Z,7
2022-10-01T11:33:16.133Z,8
2022-10-01T11:34:16.133Z,8
2022-10-01T11:35:16.131Z,8
2022-10-01T11:36:16.130Z,6
2022-10-01T11:37:16.137Z,8
2022-10-01T11:38:16.135Z,8
2022-10-01T11:39:16.137Z,8
2022-10-01T11:40:16.136Z,5
2022-10-01T11:41:16.132Z,6
2022-10-01T11:42:16.191Z,5
2022-10-01T11:43:16.137Z,7
2022-10-01T11:44:16.140Z,7
2022-10-01T11:45:16.132Z,7
2022-10-01T11:46:16.204Z,8
2022-10-01T11:47:16.139Z,7
2022-10-01T11:48:16.150Z,7
2022-10-01T11:49:16.132Z,15
2022-10-01T11:50:16.136Z,7
2022-10-01T11:51:16.140Z,7
2022-10-01T11:52:16.147Z,8
2022-10-01T11:53:16.137Z,9
2022-10-01T11:54:16.144Z,7
2022-10-01T11:55:16.146Z,9
2022-10-01T11:56:16.135Z,8
2022-10-01T11:57:16.136Z,7
2022-10-01T11:58:16.140Z,9
2022-10-01T11:59:16.138Z,7
2022-10-01T12:01:16.158Z,6
2022-10-01T12:02:16.271Z,7
2022-10-01T12:03:16.153Z,7
2022-10-01T12:04:16.143Z,9
2022-10-01T12:05:16.169Z,8
2022-10-01T12:06:16.144Z,7
2022-10-01T12:07:16.136Z,10
2022-10-01T12:08:16.238Z,6
2022-10-01T12:09:16.219Z,4
2022-10-01T12:10:16.221Z,6
2022-10-01T12:11:16.143Z,4
2022-10-01T12:12:16.141Z,6
2022-10-01T12:13:16.139Z,4
2022-10-01T12:14:16.144Z,5
2022-10-01T12:15:16.140Z,5
2022-10-01T12:16:16.311Z,5
2022-10-01T12:17:16.142Z,4
2022-10-01T12:18:16.161Z,7
2022-10-01T12:19:16.140Z,5
2022-10-01T12:22:16.142Z,6
2022-10-01T12:23:16.156Z,8
2022-10-01T12:24:16.144Z,7
2022-10-01T12:25:16.140Z,5
2022-10-01T12:26:16.141Z,5
2022-10-01T12:27:16.142Z,8
2022-10-01T12:28:16.233Z,7
2022-10-01T12:29:16.148Z,9
2022-10-01T12:31:16.243Z,6
2022-10-01T12:32:16.141Z,7
2022-10-01T12:33:16.167Z,10
2022-10-01T12:34:16.145Z,6
2022-10-01T12:35:16.158Z,8
2022-10-01T12:36:16.194Z,12
2022-10-01T12:37:16.144Z,7
2022-10-01T12:38:16.165Z,7
2022-10-01T12:39:16.149Z,8
2022-10-01T12:40:16.163Z,7
2022-10-01T12:41:16.149Z,7
2022-10-01T12:42:16.149Z,9
2022-10-01T12:43:16.145Z,7
2022-10-01T12:44:16.156Z,10
2022-10-01T12:45:16.139Z,8
2022-10-01T12:46:16.240Z,7
2022-10-01T12:47:16.146Z,10
2022-10-01T12:48:16.150Z,8
2022-10-01T12:49:16.151Z,8
2022-10-01T12:50:16.140Z,8
2022-10-01T12:51:16.143Z,7
2022-10-01T12:52:16.155Z,7
2022-10-01T12:54:16.171Z,10
2022-10-01T12:56:16.151Z,8
2022-10-01T12:57:16.146Z,7
2022-10-01T12:58:16.152Z,9
2022-10-01T12:59:16.233Z,8
2022-10-01T13:00:16.231Z,10
2022-10-01T13:01:16.300Z,6
2022-10-01T13:02:16.386Z,8
2022-10-01T13:03:16.280Z,5
2022-10-01T13:04:16.239Z,6
2022-10-01T13:06:16.240Z,8
2022-10-01T13:07:16.242Z,7
2022-10-01T13:08:16.284Z,7
2022-10-01T13:09:16.240Z,12
2022-10-01T13:10:16.250Z,8
2022-10-01T13:11:16.244Z,8
2022-10-01T13:12:16.243Z,6
2022-10-01T13:13:16.241Z,9
2022-10-01T13:14:16.157Z,7
2022-10-01T13:15:16.213Z,11
2022-10-01T13:16:16.176Z,7
2022-10-01T13:17:16.155Z,6
2022-10-01T13:18:16.167Z,10
2022-10-01T13:19:16.174Z,9
2022-10-01T13:20:16.223Z,7
2022-10-01T13:21:16.167Z,8
2022-10-01T13:22:16.211Z,11
2022-10-01T13:23:16.153Z,7
2022-10-01T13:24:16.158Z,10
2022-10-01T13:25:16.157Z,8
2022-10-01T13:27:16.157Z,8
2022-10-01T13:28:16.229Z,6
2022-10-01T13:29:16.151Z,7
2022-10-01T13:30:16.161Z,9
2022-10-01T13:31:16.199Z,7
2022-10-01T13:32:16.154Z,8
2022-10-01T13:33:16.159Z,8
2022-10-01T13:34:16.210Z,6
2022-10-01T13:35:16.157Z,7
2022-10-01T13:36:16.169Z,9
2022-10-01T13:37:16.162Z,7
2022-10-01T13:38:16.160Z,5
2022-10-01T13:39:16.157Z,7
2022-10-01T13:40:16.162Z,8
2022-10-01T13:41:16.175Z,6
2022-10-01T13:42:16.157Z,10
2022-10-01T13:43:16.170Z,4
2022-10-01T13:44:16.165Z,5
2022-10-01T13:45:16.880Z,6
2022-10-01T13:46:16.203Z,5
2022-10-01T13:48:16.166Z,6
2022-10-01T13:49:16.161Z,4
2022-10-01T13:50:16.185Z,5
2022-10-01T13:51:16.217Z,3
2022-10-01T13:52:16.167Z,5
2022-10-01T13:53:16.154Z,5
2022-10-01T13:54:18.700Z,6
2022-10-01T13:55:16.161Z,6
2022-10-01T13:56:16.234Z,8
2022-10-01T13:57:16.164Z,6
2022-10-01T13:58:16.161Z,7
2022-10-01T13:59:16.171Z,5
2022-10-01T14:00:16.240Z,7
2022-10-01T14:02:16.412Z,9
2022-10-01T14:04:16.250Z,5
2022-10-01T14:05:16.251Z,7
2022-10-01T14:06:16.254Z,6
2022-10-01T14:07:16.251Z,6
2022-10-01T14:08:16.258Z,6
2022-10-01T14:09:16.251Z,8
2022-10-01T14:10:16.246Z,8
2022-10-01T14:12:16.271Z,9
2022-10-01T14:13:20.905Z,7
2022-10-01T14:14:16.254Z,7
2022-10-01T14:15:16.257Z,7
2022-10-01T14:17:16.166Z,6
2022-10-01T14:18:16.168Z,10
2022-10-01T14:19:16.174Z,6
2022-10-01T14:20:16.222Z,7
2022-10-01T14:21:16.192Z,9
2022-10-01T14:22:16.161Z,8
2022-10-01T14:23:16.183Z,7
2022-10-01T14:25:16.229Z,7
2022-10-01T14:26:16.161Z,6
2022-10-01T14:27:16.176Z,8
2022-10-01T14:28:16.222Z,7
2022-10-01T14:29:16.165Z,9
2022-10-01T14:30:16.176Z,6
2022-10-01T14:31:16.194Z,5
2022-10-01T14:32:16.175Z,5
2022-10-01T14:33:16.176Z,12
2022-10-01T14:34:16.186Z,5
2022-10-01T14:35:16.169Z,5
2022-10-01T14:36:16.171Z,7
2022-10-01T14:37:17.261Z,7
2022-10-01T14:38:16.165Z,8
2022-10-01T14:39:16.170Z,6
2022-10-01T14:40:16.175Z,5
2022-10-01T14:41:16.172Z,6
2022-10-01T14:42:17.056Z,8
2022-10-01T14:43:16.177Z,7
2022-10-01T14:44:16.176Z,6
2022-10-01T14:46:16.212Z,6
2022-10-01T14:47:16.175Z,4
2022-10-01T14:48:16.176Z,6
2022-10-01T14:49:16.183Z,5
2022-10-01T14:50:16.179Z,10
2022-10-01T14:51:16.183Z,7
2022-10-01T14:52:16.203Z,7
2022-10-01T14:53:16.173Z,7
2022-10-01T14:54:16.177Z,6
2022-10-01T14:55:16.183Z,8
2022-10-01T14:56:16.178Z,6
2022-10-01T14:57:16.177Z,10
2022-10-01T14:58:16.187Z,8
2022-10-01T14:59:17.174Z,9
2022-10-01T15:00:16.192Z,6
2022-10-01T15:01:16.180Z,6
2022-10-01T15:02:16.183Z,6
2022-10-01T15:03:16.257Z,6
2022-10-01T15:04:16.398Z,7
2022-10-01T15:05:20.110Z,7
2022-10-01T15:07:16.267Z,5
2022-10-01T15:08:16.267Z,6
2022-10-01T15:09:16.259Z,9
2022-10-01T15:10:16.283Z,6
2022-10-01T15:11:16.259Z,6
2022-10-01T15:12:16.266Z,9
2022-10-01T15:13:16.268Z,7
2022-10-01T15:14:16.269Z,8
2022-10-01T15:15:16.266Z,8
2022-10-01T15:16:16.394Z,7
2022-10-01T15:18:16.282Z,6
2022-10-01T15:19:16.452Z,6
2022-10-01T15:21:44.699Z,4
2022-10-01T15:23:01.440Z,6
2022-10-01T15:27:55.360Z,4
2022-10-01T15:29:46.508Z,8
2022-10-01T15:35:57.134Z,5
2022-10-01T15:42:44.573Z,5
2022-10-01T15:42:55.871Z,6
2022-10-01T15:43:37.004Z,7
2022-10-01T15:46:16.369Z,7
2022-10-01T15:47:16.208Z,7
2022-10-01T15:49:16.205Z,5
2022-10-01T15:50:16.193Z,6
2022-10-01T15:51:16.201Z,6
2022-10-01T15:52:16.205Z,7
2022-10-01T15:53:16.196Z,5
2022-10-01T15:54:16.219Z,5
2022-10-01T15:55:16.203Z,9
2022-10-01T15:56:16.196Z,5
2022-10-01T15:57:16.197Z,9
2022-10-01T15:58:16.197Z,7
2022-10-01T15:59:16.207Z,6
2022-10-01T16:00:16.202Z,6
2022-10-01T16:01:20.111Z,4
2022-10-01T16:02:16.280Z,7
2022-10-01T16:04:16.201Z,7
2022-10-01T16:05:16.201Z,5
2022-10-01T16:06:16.203Z,6
2022-10-01T16:07:16.203Z,6
2022-10-01T16:08:16.211Z,7
2022-10-01T16:10:16.200Z,7
2022-10-01T16:11:16.202Z,8